sensor_id;sensor_type;location;lat;lon;timestamp;temperature;humidity
16532;DHT22;66872;63.142;14.482;2024-03-07T00:01:27;15.80;29.90
16532;DHT22;66872;63.142;14.482;2024-03-07T00:03:53;15.90;29.90
16532;DHT22;66872;63.142;14.482;2024-03-07T00:06:18;15.80;29.90
16532;DHT22;66872;63.142;14.482;2024-03-07T00:08:46;15.80;29.80
16532;DHT22;66872;63.142;14.482;2024-03-07T00:11:12;15.80;29.90
16532;DHT22;66872;63.142;14.482;2024-03-07T00:13:37;15.80;29.90
16532;DHT22;66872;63.142;14.482;2024-03-07T00:16:03;15.80;29.90
16532;DHT22;66872;63.142;14.482;2024-03-07T00:18:29;15.80;29.90
16532;DHT22;66872;63.142;14.482;2024-03-07T00:20:55;15.80;29.90
16532;DHT22;66872;63.142;14.482;2024-03-07T00:23:21;15.80;29.80
16532;DHT22;66872;63.142;14.482;2024-03-07T00:25:46;15.80;29.90
16532;DHT22;66872;63.142;14.482;2024-03-07T00:28:16;15.80;29.90
16532;DHT22;66872;63.142;14.482;2024-03-07T00:30:43;15.80;29.90
16532;DHT22;66872;63.142;14.482;2024-03-07T00:33:11;15.80;29.90
16532;DHT22;66872;63.142;14.482;2024-03-07T00:35:37;15.80;30.00
16532;DHT22;66872;63.142;14.482;2024-03-07T00:38:03;15.80;30.00
16532;DHT22;66872;63.142;14.482;2024-03-07T00:40:29;15.80;30.00
16532;DHT22;66872;63.142;14.482;2024-03-07T00:42:55;15.70;30.00
16532;DHT22;66872;63.142;14.482;2024-03-07T00:45:21;15.70;30.00
16532;DHT22;66872;63.142;14.482;2024-03-07T00:47:46;15.70;29.90
16532;DHT22;66872;63.142;14.482;2024-03-07T00:50:14;15.80;30.00
16532;DHT22;66872;63.142;14.482;2024-03-07T00:52:40;15.70;29.90
16532;DHT22;66872;63.142;14.482;2024-03-07T00:55:06;15.80;30.00
16532;DHT22;66872;63.142;14.482;2024-03-07T00:57:35;15.70;29.90
16532;DHT22;66872;63.142;14.482;2024-03-07T01:00:02;15.70;29.90
16532;DHT22;66872;63.142;14.482;2024-03-07T01:02:29;15.70;29.90
16532;DHT22;66872;63.142;14.482;2024-03-07T01:04:55;15.70;29.90
16532;DHT22;66872;63.142;14.482;2024-03-07T01:07:21;15.70;29.90
16532;DHT22;66872;63.142;14.482;2024-03-07T01:09:49;15.70;30.00
16532;DHT22;66872;63.142;14.482;2024-03-07T01:12:14;15.70;29.90
16532;DHT22;66872;63.142;14.482;2024-03-07T01:14:41;15.70;29.90
16532;DHT22;66872;63.142;14.482;2024-03-07T01:17:06;15.70;30.00
16532;DHT22;66872;63.142;14.482;2024-03-07T01:19:33;15.70;30.00
16532;DHT22;66872;63.142;14.482;2024-03-07T01:21:59;15.60;29.90
16532;DHT22;66872;63.142;14.482;2024-03-07T01:24:25;15.70;30.00
16532;DHT22;66872;63.142;14.482;2024-03-07T01:26:51;15.70;30.00
16532;DHT22;66872;63.142;14.482;2024-03-07T01:29:17;15.70;30.00
16532;DHT22;66872;63.142;14.482;2024-03-07T01:31:43;15.70;30.00
16532;DHT22;66872;63.142;14.482;2024-03-07T01:34:08;15.70;30.00
16532;DHT22;66872;63.142;14.482;2024-03-07T01:36:34;15.60;30.00
16532;DHT22;66872;63.142;14.482;2024-03-07T01:39:00;15.60;30.00
16532;DHT22;66872;63.142;14.482;2024-03-07T01:41:28;15.60;30.00
16532;DHT22;66872;63.142;14.482;2024-03-07T01:43:54;15.70;30.00
16532;DHT22;66872;63.142;14.482;2024-03-07T01:46:20;15.60;30.00
16532;DHT22;66872;63.142;14.482;2024-03-07T01:48:46;15.60;30.00
16532;DHT22;66872;63.142;14.482;2024-03-07T01:51:13;15.60;30.00
16532;DHT22;66872;63.142;14.482;2024-03-07T01:53:39;15.60;30.00
16532;DHT22;66872;63.142;14.482;2024-03-07T01:56:05;15.60;30.00
16532;DHT22;66872;63.142;14.482;2024-03-07T01:58:31;15.60;30.00
16532;DHT22;66872;63.142;14.482;2024-03-07T02:00:58;15.60;30.00
16532;DHT22;66872;63.142;14.482;2024-03-07T02:03:25;15.60;30.00
16532;DHT22;66872;63.142;14.482;2024-03-07T02:05:50;15.60;30.00
16532;DHT22;66872;63.142;14.482;2024-03-07T02:08:16;15.60;30.00
16532;DHT22;66872;63.142;14.482;2024-03-07T02:10:42;15.60;30.00
16532;DHT22;66872;63.142;14.482;2024-03-07T02:13:08;15.60;30.00
16532;DHT22;66872;63.142;14.482;2024-03-07T02:15:33;15.60;30.00
16532;DHT22;66872;63.142;14.482;2024-03-07T02:17:59;15.60;30.00
16532;DHT22;66872;63.142;14.482;2024-03-07T02:20:25;15.60;30.00
16532;DHT22;66872;63.142;14.482;2024-03-07T02:22:54;15.60;30.00
16532;DHT22;66872;63.142;14.482;2024-03-07T02:25:19;15.60;30.00
16532;DHT22;66872;63.142;14.482;2024-03-07T02:27:45;15.60;30.00
16532;DHT22;66872;63.142;14.482;2024-03-07T02:30:11;15.60;30.00
16532;DHT22;66872;63.142;14.482;2024-03-07T02:32:38;15.60;30.00
16532;DHT22;66872;63.142;14.482;2024-03-07T02:35:04;15.60;29.90
16532;DHT22;66872;63.142;14.482;2024-03-07T02:37:30;15.60;29.90
16532;DHT22;66872;63.142;14.482;2024-03-07T02:39:56;15.60;29.90
16532;DHT22;66872;63.142;14.482;2024-03-07T02:42:22;15.60;30.00
16532;DHT22;66872;63.142;14.482;2024-03-07T02:44:48;15.60;30.00
16532;DHT22;66872;63.142;14.482;2024-03-07T02:47:13;15.60;29.90
16532;DHT22;66872;63.142;14.482;2024-03-07T02:49:39;15.60;30.00
16532;DHT22;66872;63.142;14.482;2024-03-07T02:52:05;15.60;30.00
16532;DHT22;66872;63.142;14.482;2024-03-07T02:54:33;15.60;30.00
16532;DHT22;66872;63.142;14.482;2024-03-07T02:56:59;15.50;29.90
16532;DHT22;66872;63.142;14.482;2024-03-07T02:59:24;15.60;30.00
16532;DHT22;66872;63.142;14.482;2024-03-07T03:01:50;15.50;29.90
16532;DHT22;66872;63.142;14.482;2024-03-07T03:04:16;15.50;29.90
16532;DHT22;66872;63.142;14.482;2024-03-07T03:06:43;15.50;29.90
16532;DHT22;66872;63.142;14.482;2024-03-07T03:09:08;15.60;30.00
16532;DHT22;66872;63.142;14.482;2024-03-07T03:11:38;15.50;29.90
16532;DHT22;66872;63.142;14.482;2024-03-07T03:14:04;15.60;30.00
16532;DHT22;66872;63.142;14.482;2024-03-07T03:16:30;15.60;29.90
16532;DHT22;66872;63.142;14.482;2024-03-07T03:18:56;15.50;29.90
16532;DHT22;66872;63.142;14.482;2024-03-07T03:21:23;15.60;29.90
16532;DHT22;66872;63.142;14.482;2024-03-07T03:23:49;15.60;29.90
16532;DHT22;66872;63.142;14.482;2024-03-07T03:26:14;15.60;29.80
16532;DHT22;66872;63.142;14.482;2024-03-07T03:28:43;15.60;29.80
16532;DHT22;66872;63.142;14.482;2024-03-07T03:31:09;15.60;29.80
16532;DHT22;66872;63.142;14.482;2024-03-07T03:33:34;15.60;29.80
16532;DHT22;66872;63.142;14.482;2024-03-07T03:36:00;15.60;29.80
16532;DHT22;66872;63.142;14.482;2024-03-07T03:38:26;15.60;29.80
16532;DHT22;66872;63.142;14.482;2024-03-07T03:40:52;15.60;29.80
16532;DHT22;66872;63.142;14.482;2024-03-07T03:43:17;15.60;29.80
16532;DHT22;66872;63.142;14.482;2024-03-07T03:45:44;15.60;29.80
16532;DHT22;66872;63.142;14.482;2024-03-07T03:48:10;15.60;29.80
16532;DHT22;66872;63.142;14.482;2024-03-07T03:50:36;15.60;29.80
16532;DHT22;66872;63.142;14.482;2024-03-07T03:53:02;15.60;29.80
16532;DHT22;66872;63.142;14.482;2024-03-07T03:55:29;15.60;29.80
16532;DHT22;66872;63.142;14.482;2024-03-07T03:57:55;15.60;29.80
16532;DHT22;66872;63.142;14.482;2024-03-07T04:00:21;15.60;29.80
16532;DHT22;66872;63.142;14.482;2024-03-07T04:02:48;15.60;29.80
16532;DHT22;66872;63.142;14.482;2024-03-07T04:05:18;15.60;29.80
16532;DHT22;66872;63.142;14.482;2024-03-07T04:07:44;15.60;29.80
16532;DHT22;66872;63.142;14.482;2024-03-07T04:10:11;15.60;29.80
16532;DHT22;66872;63.142;14.482;2024-03-07T04:12:41;15.60;29.80
16532;DHT22;66872;63.142;14.482;2024-03-07T04:15:08;15.60;29.70
16532;DHT22;66872;63.142;14.482;2024-03-07T04:17:35;15.60;29.80
16532;DHT22;66872;63.142;14.482;2024-03-07T04:20:01;15.60;29.80
16532;DHT22;66872;63.142;14.482;2024-03-07T04:22:31;15.60;29.80
16532;DHT22;66872;63.142;14.482;2024-03-07T04:24:57;15.50;29.70
16532;DHT22;66872;63.142;14.482;2024-03-07T04:27:22;15.50;29.80
16532;DHT22;66872;63.142;14.482;2024-03-07T04:29:48;15.60;29.80
16532;DHT22;66872;63.142;14.482;2024-03-07T04:32:14;15.60;29.80
16532;DHT22;66872;63.142;14.482;2024-03-07T04:34:40;15.60;29.70
16532;DHT22;66872;63.142;14.482;2024-03-07T04:37:06;15.60;29.70
16532;DHT22;66872;63.142;14.482;2024-03-07T04:39:32;15.60;29.70
16532;DHT22;66872;63.142;14.482;2024-03-07T04:42:04;15.50;29.70
16532;DHT22;66872;63.142;14.482;2024-03-07T04:44:32;15.50;29.70
16532;DHT22;66872;63.142;14.482;2024-03-07T04:46:58;15.50;29.70
16532;DHT22;66872;63.142;14.482;2024-03-07T04:49:26;15.60;29.80
16532;DHT22;66872;63.142;14.482;2024-03-07T04:51:54;15.60;29.70
16532;DHT22;66872;63.142;14.482;2024-03-07T04:54:20;15.60;29.70
16532;DHT22;66872;63.142;14.482;2024-03-07T04:56:47;15.60;29.70
16532;DHT22;66872;63.142;14.482;2024-03-07T04:59:13;15.60;29.70
16532;DHT22;66872;63.142;14.482;2024-03-07T05:01:39;15.60;29.70
16532;DHT22;66872;63.142;14.482;2024-03-07T05:04:06;15.60;29.80
16532;DHT22;66872;63.142;14.482;2024-03-07T05:06:32;15.50;29.70
16532;DHT22;66872;63.142;14.482;2024-03-07T05:09:04;15.50;30.10
16532;DHT22;66872;63.142;14.482;2024-03-07T05:11:33;15.50;29.70
16532;DHT22;66872;63.142;14.482;2024-03-07T05:13:59;15.50;29.80
16532;DHT22;66872;63.142;14.482;2024-03-07T05:16:28;15.50;29.80
16532;DHT22;66872;63.142;14.482;2024-03-07T05:18:55;15.50;29.80
16532;DHT22;66872;63.142;14.482;2024-03-07T05:21:25;15.50;29.80
16532;DHT22;66872;63.142;14.482;2024-03-07T05:24:04;15.50;29.80
16532;DHT22;66872;63.142;14.482;2024-03-07T05:26:34;15.50;29.80
16532;DHT22;66872;63.142;14.482;2024-03-07T05:29:06;15.50;29.80
16532;DHT22;66872;63.142;14.482;2024-03-07T05:31:34;15.50;29.80
16532;DHT22;66872;63.142;14.482;2024-03-07T05:34:04;15.50;29.80
16532;DHT22;66872;63.142;14.482;2024-03-07T05:36:36;15.50;29.70
16532;DHT22;66872;63.142;14.482;2024-03-07T05:39:10;15.50;29.70
16532;DHT22;66872;63.142;14.482;2024-03-07T05:41:43;15.50;29.70
16532;DHT22;66872;63.142;14.482;2024-03-07T05:44:10;15.50;29.70
16532;DHT22;66872;63.142;14.482;2024-03-07T05:46:37;15.50;29.70
16532;DHT22;66872;63.142;14.482;2024-03-07T05:49:09;15.50;29.70
16532;DHT22;66872;63.142;14.482;2024-03-07T05:51:35;15.50;29.70
16532;DHT22;66872;63.142;14.482;2024-03-07T05:54:01;15.50;29.70
16532;DHT22;66872;63.142;14.482;2024-03-07T05:56:35;15.50;29.70
16532;DHT22;66872;63.142;14.482;2024-03-07T05:59:03;15.50;29.70
16532;DHT22;66872;63.142;14.482;2024-03-07T06:01:38;15.50;29.70
16532;DHT22;66872;63.142;14.482;2024-03-07T06:04:06;15.50;29.70
16532;DHT22;66872;63.142;14.482;2024-03-07T06:06:33;15.50;29.70
16532;DHT22;66872;63.142;14.482;2024-03-07T06:09:03;15.40;29.60
16532;DHT22;66872;63.142;14.482;2024-03-07T06:11:39;15.40;29.70
16532;DHT22;66872;63.142;14.482;2024-03-07T06:14:08;15.40;29.70
16532;DHT22;66872;63.142;14.482;2024-03-07T06:16:36;15.40;29.70
16532;DHT22;66872;63.142;14.482;2024-03-07T06:19:02;15.40;29.60
16532;DHT22;66872;63.142;14.482;2024-03-07T06:21:29;15.40;29.60
16532;DHT22;66872;63.142;14.482;2024-03-07T06:23:58;15.40;29.60
16532;DHT22;66872;63.142;14.482;2024-03-07T06:26:33;15.40;29.60
16532;DHT22;66872;63.142;14.482;2024-03-07T06:29:06;15.40;29.60
16532;DHT22;66872;63.142;14.482;2024-03-07T06:31:33;15.50;29.60
16532;DHT22;66872;63.142;14.482;2024-03-07T06:33:58;15.50;29.60
16532;DHT22;66872;63.142;14.482;2024-03-07T06:36:24;15.50;29.60
16532;DHT22;66872;63.142;14.482;2024-03-07T06:38:53;15.40;29.60
16532;DHT22;66872;63.142;14.482;2024-03-07T06:41:19;15.40;29.50
16532;DHT22;66872;63.142;14.482;2024-03-07T06:43:45;15.40;29.60
16532;DHT22;66872;63.142;14.482;2024-03-07T06:46:11;15.50;29.60
16532;DHT22;66872;63.142;14.482;2024-03-07T06:48:38;15.40;29.50
16532;DHT22;66872;63.142;14.482;2024-03-07T06:51:07;15.40;29.50
16532;DHT22;66872;63.142;14.482;2024-03-07T06:53:33;15.50;29.50
16532;DHT22;66872;63.142;14.482;2024-03-07T06:55:59;15.50;29.50
16532;DHT22;66872;63.142;14.482;2024-03-07T06:58:25;15.50;30.00
16532;DHT22;66872;63.142;14.482;2024-03-07T07:00:52;15.50;29.40
16532;DHT22;66872;63.142;14.482;2024-03-07T07:03:21;15.50;29.40
16532;DHT22;66872;63.142;14.482;2024-03-07T07:05:48;15.50;29.40
16532;DHT22;66872;63.142;14.482;2024-03-07T07:08:14;15.50;29.40
16532;DHT22;66872;63.142;14.482;2024-03-07T07:10:40;15.50;29.40
16532;DHT22;66872;63.142;14.482;2024-03-07T07:13:06;15.50;29.40
16532;DHT22;66872;63.142;14.482;2024-03-07T07:15:32;15.50;29.40
16532;DHT22;66872;63.142;14.482;2024-03-07T07:17:58;15.40;29.40
16532;DHT22;66872;63.142;14.482;2024-03-07T07:20:24;15.40;29.40
16532;DHT22;66872;63.142;14.482;2024-03-07T07:22:50;15.40;29.40
16532;DHT22;66872;63.142;14.482;2024-03-07T07:25:18;15.50;29.50
16532;DHT22;66872;63.142;14.482;2024-03-07T07:27:52;15.50;29.40
16532;DHT22;66872;63.142;14.482;2024-03-07T07:30:20;15.50;29.40
16532;DHT22;66872;63.142;14.482;2024-03-07T07:32:50;15.50;29.40
16532;DHT22;66872;63.142;14.482;2024-03-07T07:35:16;15.50;29.30
16532;DHT22;66872;63.142;14.482;2024-03-07T07:37:44;15.50;29.40
16532;DHT22;66872;63.142;14.482;2024-03-07T07:40:12;15.50;29.40
16532;DHT22;66872;63.142;14.482;2024-03-07T07:42:46;15.50;29.40
16532;DHT22;66872;63.142;14.482;2024-03-07T07:45:15;15.50;29.40
16532;DHT22;66872;63.142;14.482;2024-03-07T07:47:45;15.50;29.40
16532;DHT22;66872;63.142;14.482;2024-03-07T07:50:13;15.50;29.30
16532;DHT22;66872;63.142;14.482;2024-03-07T07:52:52;15.50;29.30
16532;DHT22;66872;63.142;14.482;2024-03-07T07:55:25;15.50;29.30
16532;DHT22;66872;63.142;14.482;2024-03-07T07:58:00;15.50;29.30
16532;DHT22;66872;63.142;14.482;2024-03-07T08:00:29;15.50;29.60
16532;DHT22;66872;63.142;14.482;2024-03-07T08:03:04;15.50;29.40
16532;DHT22;66872;63.142;14.482;2024-03-07T08:05:32;15.50;29.40
16532;DHT22;66872;63.142;14.482;2024-03-07T08:08:00;15.50;29.30
16532;DHT22;66872;63.142;14.482;2024-03-07T08:10:30;15.50;29.40
16532;DHT22;66872;63.142;14.482;2024-03-07T08:12:57;15.50;29.40
16532;DHT22;66872;63.142;14.482;2024-03-07T08:15:24;15.50;29.40
16532;DHT22;66872;63.142;14.482;2024-03-07T08:17:50;15.50;29.40
16532;DHT22;66872;63.142;14.482;2024-03-07T08:20:18;15.50;29.30
16532;DHT22;66872;63.142;14.482;2024-03-07T08:22:46;15.50;29.30
16532;DHT22;66872;63.142;14.482;2024-03-07T08:25:16;15.50;29.30
16532;DHT22;66872;63.142;14.482;2024-03-07T08:27:44;15.50;29.30
16532;DHT22;66872;63.142;14.482;2024-03-07T08:30:11;15.50;29.20
16532;DHT22;66872;63.142;14.482;2024-03-07T08:32:40;15.60;29.30
16532;DHT22;66872;63.142;14.482;2024-03-07T08:35:07;15.50;29.20
16532;DHT22;66872;63.142;14.482;2024-03-07T08:37:42;15.50;29.30
16532;DHT22;66872;63.142;14.482;2024-03-07T08:40:09;15.50;29.30
16532;DHT22;66872;63.142;14.482;2024-03-07T08:42:48;15.50;29.30
16532;DHT22;66872;63.142;14.482;2024-03-07T08:45:15;15.50;29.30
16532;DHT22;66872;63.142;14.482;2024-03-07T08:47:45;15.50;29.30
16532;DHT22;66872;63.142;14.482;2024-03-07T08:50:12;15.50;29.30
16532;DHT22;66872;63.142;14.482;2024-03-07T08:52:39;15.50;29.30
16532;DHT22;66872;63.142;14.482;2024-03-07T08:55:06;15.50;29.40
16532;DHT22;66872;63.142;14.482;2024-03-07T08:57:35;15.40;29.30
16532;DHT22;66872;63.142;14.482;2024-03-07T09:00:02;15.40;29.40
16532;DHT22;66872;63.142;14.482;2024-03-07T09:02:35;15.50;29.40
16532;DHT22;66872;63.142;14.482;2024-03-07T09:05:02;15.50;29.30
16532;DHT22;66872;63.142;14.482;2024-03-07T09:07:28;15.50;29.30
16532;DHT22;66872;63.142;14.482;2024-03-07T09:09:55;15.60;29.20
16532;DHT22;66872;63.142;14.482;2024-03-07T09:12:21;15.60;29.20
16532;DHT22;66872;63.142;14.482;2024-03-07T09:14:47;15.70;29.10
16532;DHT22;66872;63.142;14.482;2024-03-07T09:17:12;15.70;29.10
16532;DHT22;66872;63.142;14.482;2024-03-07T09:19:38;15.70;29.10
16532;DHT22;66872;63.142;14.482;2024-03-07T09:22:04;15.80;29.10
16532;DHT22;66872;63.142;14.482;2024-03-07T09:24:34;15.80;29.10
16532;DHT22;66872;63.142;14.482;2024-03-07T09:27:00;15.80;29.10
16532;DHT22;66872;63.142;14.482;2024-03-07T09:29:26;15.70;29.10
16532;DHT22;66872;63.142;14.482;2024-03-07T09:31:53;15.70;29.10
16532;DHT22;66872;63.142;14.482;2024-03-07T09:34:22;15.70;29.70
16532;DHT22;66872;63.142;14.482;2024-03-07T09:36:48;15.70;29.20
16532;DHT22;66872;63.142;14.482;2024-03-07T09:39:17;15.60;29.20
16532;DHT22;66872;63.142;14.482;2024-03-07T09:41:44;15.70;29.30
16532;DHT22;66872;63.142;14.482;2024-03-07T09:44:14;15.60;29.30
16532;DHT22;66872;63.142;14.482;2024-03-07T09:46:40;15.70;29.30
16532;DHT22;66872;63.142;14.482;2024-03-07T09:49:07;15.70;29.30
16532;DHT22;66872;63.142;14.482;2024-03-07T09:51:36;15.70;29.40
16532;DHT22;66872;63.142;14.482;2024-03-07T09:54:02;15.70;29.40
16532;DHT22;66872;63.142;14.482;2024-03-07T09:56:30;15.60;29.40
16532;DHT22;66872;63.142;14.482;2024-03-07T09:59:03;15.70;29.40
16532;DHT22;66872;63.142;14.482;2024-03-07T10:01:33;15.70;29.50
16532;DHT22;66872;63.142;14.482;2024-03-07T10:04:00;15.60;29.40
16532;DHT22;66872;63.142;14.482;2024-03-07T10:06:37;15.60;29.40
16532;DHT22;66872;63.142;14.482;2024-03-07T10:09:05;15.60;29.50
16532;DHT22;66872;63.142;14.482;2024-03-07T10:11:32;15.60;29.50
16532;DHT22;66872;63.142;14.482;2024-03-07T10:13:57;15.70;29.60
16532;DHT22;66872;63.142;14.482;2024-03-07T10:16:23;15.60;29.50
16532;DHT22;66872;63.142;14.482;2024-03-07T10:18:49;15.60;29.50
16532;DHT22;66872;63.142;14.482;2024-03-07T10:21:19;15.70;29.60
16532;DHT22;66872;63.142;14.482;2024-03-07T10:23:45;15.60;29.50
16532;DHT22;66872;63.142;14.482;2024-03-07T10:26:10;15.70;29.60
16532;DHT22;66872;63.142;14.482;2024-03-07T10:28:37;15.70;29.60
16532;DHT22;66872;63.142;14.482;2024-03-07T10:31:04;15.70;29.60
16532;DHT22;66872;63.142;14.482;2024-03-07T10:33:34;15.70;29.60
16532;DHT22;66872;63.142;14.482;2024-03-07T10:36:01;15.70;29.60
16532;DHT22;66872;63.142;14.482;2024-03-07T10:38:27;15.70;29.60
16532;DHT22;66872;63.142;14.482;2024-03-07T10:40:54;15.70;29.60
16532;DHT22;66872;63.142;14.482;2024-03-07T10:43:21;15.70;29.60
16532;DHT22;66872;63.142;14.482;2024-03-07T10:45:48;15.70;29.50
16532;DHT22;66872;63.142;14.482;2024-03-07T10:48:19;15.70;29.50
16532;DHT22;66872;63.142;14.482;2024-03-07T10:53:38;15.70;29.50
16532;DHT22;66872;63.142;14.482;2024-03-07T10:59:09;15.70;29.50
16532;DHT22;66872;63.142;14.482;2024-03-07T11:01:42;15.70;29.60
16532;DHT22;66872;63.142;14.482;2024-03-07T11:04:10;15.70;29.50
16532;DHT22;66872;63.142;14.482;2024-03-07T11:06:40;15.70;29.50
16532;DHT22;66872;63.142;14.482;2024-03-07T11:09:07;15.80;29.60
16532;DHT22;66872;63.142;14.482;2024-03-07T11:11:38;15.80;29.60
16532;DHT22;66872;63.142;14.482;2024-03-07T11:14:06;15.80;29.60
16532;DHT22;66872;63.142;14.482;2024-03-07T11:16:33;15.80;29.50
16532;DHT22;66872;63.142;14.482;2024-03-07T11:21:52;15.80;29.50
16532;DHT22;66872;63.142;14.482;2024-03-07T11:24:27;15.80;29.50
16532;DHT22;66872;63.142;14.482;2024-03-07T11:26:58;15.80;29.50
16532;DHT22;66872;63.142;14.482;2024-03-07T11:29:46;15.90;29.50
16532;DHT22;66872;63.142;14.482;2024-03-07T11:32:13;15.90;29.40
16532;DHT22;66872;63.142;14.482;2024-03-07T11:34:41;15.90;29.40
16532;DHT22;66872;63.142;14.482;2024-03-07T11:37:07;15.90;29.30
16532;DHT22;66872;63.142;14.482;2024-03-07T11:39:46;16.00;29.40
16532;DHT22;66872;63.142;14.482;2024-03-07T11:42:29;16.00;29.30
16532;DHT22;66872;63.142;14.482;2024-03-07T11:44:57;16.00;29.30
16532;DHT22;66872;63.142;14.482;2024-03-07T11:47:34;16.00;29.30
16532;DHT22;66872;63.142;14.482;2024-03-07T11:50:01;16.00;29.20
16532;DHT22;66872;63.142;14.482;2024-03-07T11:52:28;16.00;29.20
16532;DHT22;66872;63.142;14.482;2024-03-07T11:54:53;16.00;29.20
16532;DHT22;66872;63.142;14.482;2024-03-07T11:57:22;16.00;29.20
16532;DHT22;66872;63.142;14.482;2024-03-07T11:59:59;16.00;29.20
16532;DHT22;66872;63.142;14.482;2024-03-07T12:02:27;16.10;29.30
16532;DHT22;66872;63.142;14.482;2024-03-07T12:04:53;16.10;29.20
16532;DHT22;66872;63.142;14.482;2024-03-07T12:07:19;16.10;29.20
16532;DHT22;66872;63.142;14.482;2024-03-07T12:09:48;16.00;29.20
16532;DHT22;66872;63.142;14.482;2024-03-07T12:12:20;16.10;29.20
16532;DHT22;66872;63.142;14.482;2024-03-07T12:14:50;16.10;29.20
16532;DHT22;66872;63.142;14.482;2024-03-07T12:17:19;16.10;29.20
16532;DHT22;66872;63.142;14.482;2024-03-07T12:19:46;16.10;29.20
16532;DHT22;66872;63.142;14.482;2024-03-07T12:22:12;16.10;29.20
16532;DHT22;66872;63.142;14.482;2024-03-07T12:24:39;16.10;29.20
16532;DHT22;66872;63.142;14.482;2024-03-07T12:27:09;16.10;29.20
16532;DHT22;66872;63.142;14.482;2024-03-07T12:29:37;16.10;29.20
16532;DHT22;66872;63.142;14.482;2024-03-07T12:32:08;16.10;29.20
16532;DHT22;66872;63.142;14.482;2024-03-07T12:34:37;16.10;29.20
16532;DHT22;66872;63.142;14.482;2024-03-07T12:37:09;16.10;29.20
16532;DHT22;66872;63.142;14.482;2024-03-07T12:39:35;16.10;29.20
16532;DHT22;66872;63.142;14.482;2024-03-07T12:42:04;16.10;29.20
16532;DHT22;66872;63.142;14.482;2024-03-07T12:44:43;16.10;29.20
16532;DHT22;66872;63.142;14.482;2024-03-07T12:47:14;16.10;29.20
16532;DHT22;66872;63.142;14.482;2024-03-07T12:49:40;16.10;29.30
16532;DHT22;66872;63.142;14.482;2024-03-07T12:52:06;16.00;29.20
16532;DHT22;66872;63.142;14.482;2024-03-07T12:54:34;16.10;29.30
16532;DHT22;66872;63.142;14.482;2024-03-07T12:57:02;16.10;29.30
16532;DHT22;66872;63.142;14.482;2024-03-07T12:59:31;16.00;29.20
16532;DHT22;66872;63.142;14.482;2024-03-07T13:01:56;16.00;29.30
16532;DHT22;66872;63.142;14.482;2024-03-07T13:04:22;16.10;29.30
16532;DHT22;66872;63.142;14.482;2024-03-07T13:06:51;16.10;29.30
16532;DHT22;66872;63.142;14.482;2024-03-07T13:09:16;16.10;29.30
16532;DHT22;66872;63.142;14.482;2024-03-07T13:11:53;16.10;29.30
16532;DHT22;66872;63.142;14.482;2024-03-07T13:14:18;16.10;29.30
16532;DHT22;66872;63.142;14.482;2024-03-07T13:16:44;16.10;29.30
16532;DHT22;66872;63.142;14.482;2024-03-07T13:19:11;16.10;29.30
16532;DHT22;66872;63.142;14.482;2024-03-07T13:21:38;16.10;29.30
16532;DHT22;66872;63.142;14.482;2024-03-07T13:24:05;16.10;29.20
16532;DHT22;66872;63.142;14.482;2024-03-07T13:26:31;16.10;29.20
16532;DHT22;66872;63.142;14.482;2024-03-07T13:28:57;16.10;29.30
16532;DHT22;66872;63.142;14.482;2024-03-07T13:31:27;16.10;29.20
16532;DHT22;66872;63.142;14.482;2024-03-07T13:33:54;16.10;29.20
16532;DHT22;66872;63.142;14.482;2024-03-07T13:36:20;16.10;29.20
16532;DHT22;66872;63.142;14.482;2024-03-07T13:38:51;16.10;29.20
16532;DHT22;66872;63.142;14.482;2024-03-07T13:41:21;16.10;29.20
16532;DHT22;66872;63.142;14.482;2024-03-07T13:43:47;16.10;29.20
16532;DHT22;66872;63.142;14.482;2024-03-07T13:46:14;16.10;29.20
16532;DHT22;66872;63.142;14.482;2024-03-07T13:48:40;16.10;29.20
16532;DHT22;66872;63.142;14.482;2024-03-07T13:51:08;16.10;29.20
16532;DHT22;66872;63.142;14.482;2024-03-07T13:53:34;16.10;29.20
16532;DHT22;66872;63.142;14.482;2024-03-07T14:15:56;16.10;29.20
16532;DHT22;66872;63.142;14.482;2024-03-07T14:18:53;16.10;29.30
16532;DHT22;66872;63.142;14.482;2024-03-07T14:27:23;16.10;29.20
16532;DHT22;66872;63.142;14.482;2024-03-07T14:32:40;16.20;29.30
16532;DHT22;66872;63.142;14.482;2024-03-07T14:35:28;16.20;29.30
16532;DHT22;66872;63.142;14.482;2024-03-07T14:41:09;16.20;29.30
16532;DHT22;66872;63.142;14.482;2024-03-07T14:43:37;16.20;29.30
16532;DHT22;66872;63.142;14.482;2024-03-07T14:46:04;16.20;29.30
16532;DHT22;66872;63.142;14.482;2024-03-07T14:48:30;16.20;29.30
16532;DHT22;66872;63.142;14.482;2024-03-07T14:50:58;16.20;29.30
16532;DHT22;66872;63.142;14.482;2024-03-07T14:53:23;16.20;29.30
16532;DHT22;66872;63.142;14.482;2024-03-07T14:55:49;16.20;29.30
16532;DHT22;66872;63.142;14.482;2024-03-07T14:58:15;16.20;29.30
16532;DHT22;66872;63.142;14.482;2024-03-07T15:00:42;16.20;29.30
16532;DHT22;66872;63.142;14.482;2024-03-07T15:03:11;16.20;29.30
16532;DHT22;66872;63.142;14.482;2024-03-07T15:05:42;16.20;29.30
16532;DHT22;66872;63.142;14.482;2024-03-07T15:08:07;16.20;29.40
16532;DHT22;66872;63.142;14.482;2024-03-07T15:10:36;16.20;29.40
16532;DHT22;66872;63.142;14.482;2024-03-07T15:13:03;16.10;29.40
16532;DHT22;66872;63.142;14.482;2024-03-07T15:15:30;16.10;29.40
16532;DHT22;66872;63.142;14.482;2024-03-07T15:17:59;16.10;29.40
16532;DHT22;66872;63.142;14.482;2024-03-07T15:20:28;16.10;29.40
16532;DHT22;66872;63.142;14.482;2024-03-07T15:22:59;16.10;29.40
16532;DHT22;66872;63.142;14.482;2024-03-07T15:25:26;16.10;29.40
16532;DHT22;66872;63.142;14.482;2024-03-07T15:27:53;16.10;29.40
16532;DHT22;66872;63.142;14.482;2024-03-07T15:30:22;16.10;29.50
16532;DHT22;66872;63.142;14.482;2024-03-07T15:32:51;16.10;29.40
16532;DHT22;66872;63.142;14.482;2024-03-07T15:35:17;16.10;29.50
16532;DHT22;66872;63.142;14.482;2024-03-07T15:37:49;16.10;29.50
16532;DHT22;66872;63.142;14.482;2024-03-07T15:40:16;16.10;29.50
16532;DHT22;66872;63.142;14.482;2024-03-07T15:42:43;16.10;29.50
16532;DHT22;66872;63.142;14.482;2024-03-07T15:45:13;16.10;29.40
16532;DHT22;66872;63.142;14.482;2024-03-07T15:48:05;16.10;29.50
16532;DHT22;66872;63.142;14.482;2024-03-07T15:50:36;16.10;29.50
16532;DHT22;66872;63.142;14.482;2024-03-07T15:53:03;16.10;29.50
16532;DHT22;66872;63.142;14.482;2024-03-07T15:55:32;16.10;29.50
16532;DHT22;66872;63.142;14.482;2024-03-07T15:58:00;16.10;29.50
16532;DHT22;66872;63.142;14.482;2024-03-07T16:00:30;16.10;29.50